Back to Top

Language: 

My Weather Underground Personal Weather Station Historical Data with Graphs...

Delerius Weather Station Historical Data
Daily Summary for April 26, 2017 Units:  Both    English   Metric
« Previous Day
Next Day »
Daily Weekly Monthly Yearly Custom
  High: Low: Average:
Temperature: 49.8 °F /  9.9 °C 34.2 °F /  1.2 °C 42.3 °F /  5.7 °C
Dew Point: 35.8 °F /  2.1 °C 30.1 °F /  -1.1 °C 32.9 °F /  0.5 °C
Humidity: 86 % 49 % 70 %
Wind Speed: 11.0 mph /  17.7 km/h - 5 mph /  8 km/h
Wind Gust: 20.0 mph /  32.2 km/h - -
Wind:- - SW
Pressure: 30.15 in /  1020.9 hPa 30.05 in /  1017.5 hPa -
Precipitation: 0.01 in /  0.25 mm    
Historical Graphs
 
 
Tabular Data for April 26, 2017
Time Temperature Dew Point Pressure Wind Wind Speed Wind Gust Humidity Rainfall Rate (Hourly) solar Conditions
00:04 39.6 °F /  4.2 °C 34.8 °F /  1.6 °C 30.05 in /  1017.5 hPa NNW 6.0 mph /  9.7 km/h 16.0 mph /  25.7 km/h 83 % 0.00 in /  0 mm 0 W/m2
00:09 39.6 °F /  4.2 °C 34.8 °F /  1.6 °C 30.05 in /  1017.5 hPa NNW 6.0 mph /  9.7 km/h 16.0 mph /  25.7 km/h 83 % 0.00 in /  0 mm 0 W/m2
00:14 39.4 °F /  4.1 °C 34.6 °F /  1.4 °C 30.05 in /  1017.5 hPa NNW 6.0 mph /  9.7 km/h 14.0 mph /  22.5 km/h 83 % 0.00 in /  0 mm 0 W/m2
00:19 39.4 °F /  4.1 °C 34.6 °F /  1.4 °C 30.05 in /  1017.5 hPa NNW 5.0 mph /  8 km/h 15.0 mph /  24.1 km/h 83 % 0.00 in /  0 mm 0 W/m2
00:24 39.2 °F /  4 °C 34.5 °F /  1.4 °C 30.05 in /  1017.5 hPa NNW 6.0 mph /  9.7 km/h 16.0 mph /  25.7 km/h 83 % 0.00 in /  0 mm 0 W/m2
00:29 39.2 °F /  4 °C 34.5 °F /  1.4 °C 30.05 in /  1017.5 hPa NNW 8.0 mph /  12.9 km/h 18.0 mph /  29 km/h 83 % 0.00 in /  0 mm 0 W/m2
00:34 39.0 °F /  3.9 °C 34.3 °F /  1.3 °C 30.05 in /  1017.5 hPa NNW 9.0 mph /  14.5 km/h 18.0 mph /  29 km/h 83 % 0.00 in /  0 mm 0 W/m2
00:39 39.0 °F /  3.9 °C 34.6 °F /  1.4 °C 30.05 in /  1017.5 hPa NNW 9.0 mph /  14.5 km/h 18.0 mph /  29 km/h 84 % 0.00 in /  0 mm 0 W/m2
00:44 39.0 °F /  3.9 °C 34.9 °F /  1.6 °C 30.05 in /  1017.5 hPa NNW 8.0 mph /  12.9 km/h 15.0 mph /  24.1 km/h 85 % 0.00 in /  0 mm 0 W/m2
00:49 38.8 °F /  3.8 °C 34.7 °F /  1.5 °C 30.05 in /  1017.5 hPa NNW 8.0 mph /  12.9 km/h 15.0 mph /  24.1 km/h 85 % 0.00 in /  0 mm 0 W/m2
00:54 38.8 °F /  3.8 °C 34.7 °F /  1.5 °C 30.05 in /  1017.5 hPa NNW 8.0 mph /  12.9 km/h 20.0 mph /  32.2 km/h 85 % 0.00 in /  0 mm 0 W/m2
00:59 38.7 °F /  3.7 °C 34.5 °F /  1.4 °C 30.05 in /  1017.5 hPa NNW 8.0 mph /  12.9 km/h 20.0 mph /  32.2 km/h 85 % 0.00 in /  0 mm 0 W/m2
01:04 38.7 °F /  3.7 °C 34.8 °F /  1.6 °C 30.05 in /  1017.5 hPa NNW 8.0 mph /  12.9 km/h 16.0 mph /  25.7 km/h 86 % 0.00 in /  0 mm 0 W/m2
01:09 38.7 °F /  3.7 °C 34.8 °F /  1.6 °C 30.05 in /  1017.5 hPa NNW 6.0 mph /  9.7 km/h 14.0 mph /  22.5 km/h 86 % 0.00 in /  0 mm 0 W/m2
01:14 38.8 °F /  3.8 °C 34.7 °F /  1.5 °C 30.05 in /  1017.5 hPa NNW 6.0 mph /  9.7 km/h 14.0 mph /  22.5 km/h 85 % 0.00 in /  0 mm 0 W/m2
01:20 38.8 °F /  3.8 °C 34.7 °F /  1.5 °C 30.05 in /  1017.5 hPa NNW 7.0 mph /  11.3 km/h 13.0 mph /  20.9 km/h 85 % 0.00 in /  0 mm 0 W/m2
01:25 38.8 °F /  3.8 °C 34.7 °F /  1.5 °C 30.05 in /  1017.5 hPa NNW 7.0 mph /  11.3 km/h 13.0 mph /  20.9 km/h 85 % 0.00 in /  0 mm 0 W/m2
01:30 38.8 °F /  3.8 °C 34.7 °F /  1.5 °C 30.05 in /  1017.5 hPa NNW 7.0 mph /  11.3 km/h 15.0 mph /  24.1 km/h 85 % 0.00 in /  0 mm 0 W/m2
01:35 38.8 °F /  3.8 °C 35.0 °F /  1.7 °C 30.05 in /  1017.5 hPa NNW 7.0 mph /  11.3 km/h 16.0 mph /  25.7 km/h 86 % 0.00 in /  0 mm 0 W/m2
01:40 38.8 °F /  3.8 °C 35.0 °F /  1.7 °C 30.06 in /  1017.8 hPa NNW 7.0 mph /  11.3 km/h 16.0 mph /  25.7 km/h 86 % 0.01 in /  0.25 mm 0 W/m2
01:45 38.8 °F /  3.8 °C 35.0 °F /  1.7 °C 30.05 in /  1017.5 hPa NNW 8.0 mph /  12.9 km/h 15.0 mph /  24.1 km/h 86 % 0.01 in /  0.25 mm 0 W/m2
01:50 38.8 °F /  3.8 °C 35.0 °F /  1.7 °C 30.06 in /  1017.8 hPa NNW 7.0 mph /  11.3 km/h 15.0 mph /  24.1 km/h 86 % 0.01 in /  0.25 mm 0 W/m2
01:55 38.8 °F /  3.8 °C 35.0 °F /  1.7 °C 30.05 in /  1017.5 hPa NNW 6.0 mph /  9.7 km/h 15.0 mph /  24.1 km/h 86 % 0.01 in /  0.25 mm 0 W/m2
02:00 38.8 °F /  3.8 °C 35.0 °F /  1.7 °C 30.05 in /  1017.5 hPa NW 6.0 mph /  9.7 km/h 13.0 mph /  20.9 km/h 86 % 0.01 in /  0.25 mm 0 W/m2
02:05 38.7 °F /  3.7 °C 34.8 °F /  1.6 °C 30.06 in /  1017.8 hPa NNW 7.0 mph /  11.3 km/h 13.0 mph /  20.9 km/h 86 % 0.01 in /  0.25 mm 0 W/m2
02:10 38.7 °F /  3.7 °C 34.8 °F /  1.6 °C 30.06 in /  1017.8 hPa NNW 6.0 mph /  9.7 km/h 13.0 mph /  20.9 km/h 86 % 0.01 in /  0.25 mm 0 W/m2
02:15 38.7 °F /  3.7 °C 34.8 °F /  1.6 °C 30.06 in /  1017.8 hPa NNW 6.0 mph /  9.7 km/h 16.0 mph /  25.7 km/h 86 % 0.01 in /  0.25 mm 0 W/m2
02:20 38.8 °F /  3.8 °C 35.0 °F /  1.7 °C 30.05 in /  1017.5 hPa NNW 6.0 mph /  9.7 km/h 16.0 mph /  25.7 km/h 86 % 0.01 in /  0.25 mm 0 W/m2
02:25 38.8 °F /  3.8 °C 34.7 °F /  1.5 °C 30.06 in /  1017.8 hPa NNW 6.0 mph /  9.7 km/h 15.0 mph /  24.1 km/h 85 % 0.01 in /  0.25 mm 0 W/m2
02:30 38.8 °F /  3.8 °C 34.4 °F /  1.3 °C 30.06 in /  1017.8 hPa NNW 8.0 mph /  12.9 km/h 16.0 mph /  25.7 km/h 84 % 0.01 in /  0.25 mm 0 W/m2
02:35 38.8 °F /  3.8 °C 34.4 °F /  1.3 °C 30.06 in /  1017.8 hPa NNW 7.0 mph /  11.3 km/h 16.0 mph /  25.7 km/h 84 % 0.01 in /  0.25 mm 0 W/m2
02:40 38.8 °F /  3.8 °C 34.4 °F /  1.3 °C 30.06 in /  1017.8 hPa NNW 6.0 mph /  9.7 km/h 14.0 mph /  22.5 km/h 84 % 0.00 in /  0 mm 0 W/m2
02:45 38.8 °F /  3.8 °C 34.4 °F /  1.3 °C 30.06 in /  1017.8 hPa NNW 7.0 mph /  11.3 km/h 18.0 mph /  29 km/h 84 % 0.00 in /  0 mm 0 W/m2
02:50 38.7 °F /  3.7 °C 34.2 °F /  1.2 °C 30.05 in /  1017.5 hPa NNW 7.0 mph /  11.3 km/h 18.0 mph /  29 km/h 84 % 0.00 in /  0 mm 0 W/m2
02:55 38.7 °F /  3.7 °C 34.2 °F /  1.2 °C 30.05 in /  1017.5 hPa NNW 7.0 mph /  11.3 km/h 14.0 mph /  22.5 km/h 84 % 0.00 in /  0 mm 0 W/m2
03:00 38.7 °F /  3.7 °C 34.2 °F /  1.2 °C 30.06 in /  1017.8 hPa NNW 6.0 mph /  9.7 km/h 12.0 mph /  19.3 km/h 84 % 0.00 in /  0 mm 0 W/m2
03:05 38.7 °F /  3.7 °C 34.2 °F /  1.2 °C 30.06 in /  1017.8 hPa NNW 6.0 mph /  9.7 km/h 14.0 mph /  22.5 km/h 84 % 0.00 in /  0 mm 0 W/m2
03:10 38.7 °F /  3.7 °C 34.2 °F /  1.2 °C 30.06 in /  1017.8 hPa NNW 6.0 mph /  9.7 km/h 14.0 mph /  22.5 km/h 84 % 0.00 in /  0 mm 0 W/m2
03:15 38.7 °F /  3.7 °C 34.2 °F /  1.2 °C 30.06 in /  1017.8 hPa NNW 6.0 mph /  9.7 km/h 13.0 mph /  20.9 km/h 84 % 0.00 in /  0 mm 0 W/m2
03:20 38.7 °F /  3.7 °C 34.2 °F /  1.2 °C 30.06 in /  1017.8 hPa NNW 7.0 mph /  11.3 km/h 13.0 mph /  20.9 km/h 84 % 0.00 in /  0 mm 0 W/m2
03:25 38.7 °F /  3.7 °C 34.2 °F /  1.2 °C 30.06 in /  1017.8 hPa NNW 7.0 mph /  11.3 km/h 14.0 mph /  22.5 km/h 84 % 0.00 in /  0 mm 0 W/m2
03:30 38.5 °F /  3.6 °C 34.1 °F /  1.2 °C 30.06 in /  1017.8 hPa NNW 7.0 mph /  11.3 km/h 14.0 mph /  22.5 km/h 84 % 0.00 in /  0 mm 0 W/m2
03:35 38.5 °F /  3.6 °C 33.8 °F /  1 °C 30.06 in /  1017.8 hPa NW 6.0 mph /  9.7 km/h 12.0 mph /  19.3 km/h 83 % 0.00 in /  0 mm 0 W/m2
03:40 38.3 °F /  3.5 °C 33.6 °F /  0.9 °C 30.06 in /  1017.8 hPa NW 6.0 mph /  9.7 km/h 12.0 mph /  19.3 km/h 83 % 0.00 in /  0 mm 0 W/m2
03:45 38.1 °F /  3.4 °C 33.7 °F /  0.9 °C 30.06 in /  1017.8 hPa NW 6.0 mph /  9.7 km/h 13.0 mph /  20.9 km/h 84 % 0.00 in /  0 mm 0 W/m2
03:50 38.1 °F /  3.4 °C 33.7 °F /  0.9 °C 30.06 in /  1017.8 hPa NW 6.0 mph /  9.7 km/h 13.0 mph /  20.9 km/h 84 % 0.00 in /  0 mm 0 W/m2
03:56 37.9 °F /  3.3 °C 33.5 °F /  0.8 °C 30.06 in /  1017.8 hPa NW 5.0 mph /  8 km/h 12.0 mph /  19.3 km/h 84 % 0.00 in /  0 mm 0 W/m2
04:01 37.9 °F /  3.3 °C 33.5 °F /  0.8 °C 30.06 in /  1017.8 hPa NNW 5.0 mph /  8 km/h 11.0 mph /  17.7 km/h 84 % 0.00 in /  0 mm 0 W/m2
04:06 37.9 °F /  3.3 °C 33.5 °F /  0.8 °C 30.06 in /  1017.8 hPa NNW 5.0 mph /  8 km/h 12.0 mph /  19.3 km/h 84 % 0.00 in /  0 mm 0 W/m2
04:11 37.9 °F /  3.3 °C 33.5 °F /  0.8 °C 30.06 in /  1017.8 hPa NW 6.0 mph /  9.7 km/h 12.0 mph /  19.3 km/h 84 % 0.00 in /  0 mm 0 W/m2
04:16 37.9 °F /  3.3 °C 33.5 °F /  0.8 °C 30.06 in /  1017.8 hPa NW 5.0 mph /  8 km/h 10.0 mph /  16.1 km/h 84 % 0.00 in /  0 mm 0 W/m2
04:21 37.9 °F /  3.3 °C 33.5 °F /  0.8 °C 30.06 in /  1017.8 hPa NNW 5.0 mph /  8 km/h 12.0 mph /  19.3 km/h 84 % 0.00 in /  0 mm 0 W/m2
04:26 37.9 °F /  3.3 °C 33.2 °F /  0.7 °C 30.06 in /  1017.8 hPa NNW 6.0 mph /  9.7 km/h 14.0 mph /  22.5 km/h 83 % 0.00 in /  0 mm 0 W/m2
04:31 37.9 °F /  3.3 °C 33.2 °F /  0.7 °C 30.06 in /  1017.8 hPa NNW 5.0 mph /  8 km/h 14.0 mph /  22.5 km/h 83 % 0.00 in /  0 mm 0 W/m2
04:36 37.9 °F /  3.3 °C 33.2 °F /  0.7 °C 30.06 in /  1017.8 hPa NNW 5.0 mph /  8 km/h 14.0 mph /  22.5 km/h 83 % 0.00 in /  0 mm 0 W/m2
04:41 37.9 °F /  3.3 °C 33.2 °F /  0.7 °C 30.06 in /  1017.8 hPa NNW 6.0 mph /  9.7 km/h 14.0 mph /  22.5 km/h 83 % 0.00 in /  0 mm 0 W/m2
04:46 37.8 °F /  3.2 °C 33.1 °F /  0.6 °C 30.06 in /  1017.8 hPa NNW 5.0 mph /  8 km/h 14.0 mph /  22.5 km/h 83 % 0.00 in /  0 mm 0 W/m2
04:51 37.8 °F /  3.2 °C 33.1 °F /  0.6 °C 30.06 in /  1017.8 hPa NNW 6.0 mph /  9.7 km/h 14.0 mph /  22.5 km/h 83 % 0.00 in /  0 mm 0 W/m2
04:56 37.8 °F /  3.2 °C 33.1 °F /  0.6 °C 30.06 in /  1017.8 hPa NNW 6.0 mph /  9.7 km/h 13.0 mph /  20.9 km/h 83 % 0.00 in /  0 mm 0 W/m2
05:01 37.8 °F /  3.2 °C 33.1 °F /  0.6 °C 30.07 in /  1018.2 hPa NNW 6.0 mph /  9.7 km/h 12.0 mph /  19.3 km/h 83 % 0.00 in /  0 mm 0 W/m2
05:06 37.8 °F /  3.2 °C 33.1 °F /  0.6 °C 30.07 in /  1018.2 hPa NNW 6.0 mph /  9.7 km/h 12.0 mph /  19.3 km/h 83 % 0.00 in /  0 mm 0 W/m2
05:11 37.9 °F /  3.3 °C 33.2 °F /  0.7 °C 30.07 in /  1018.2 hPa NNW 5.0 mph /  8 km/h 13.0 mph /  20.9 km/h 83 % 0.00 in /  0 mm 0 W/m2
05:16 37.9 °F /  3.3 °C 33.2 °F /  0.7 °C 30.07 in /  1018.2 hPa NNW 6.0 mph /  9.7 km/h 13.0 mph /  20.9 km/h 83 % 0.00 in /  0 mm 0 W/m2
05:21 37.9 °F /  3.3 °C 33.2 °F /  0.7 °C 30.07 in /  1018.2 hPa NW 6.0 mph /  9.7 km/h 12.0 mph /  19.3 km/h 83 % 0.00 in /  0 mm 0 W/m2
05:26 37.9 °F /  3.3 °C 32.9 °F /  0.5 °C 30.07 in /  1018.2 hPa NW 6.0 mph /  9.7 km/h 12.0 mph /  19.3 km/h 82 % 0.00 in /  0 mm 0 W/m2
05:31 37.9 °F /  3.3 °C 32.9 °F /  0.5 °C 30.07 in /  1018.2 hPa NW 5.0 mph /  8 km/h 11.0 mph /  17.7 km/h 82 % 0.00 in /  0 mm 0 W/m2
05:36 37.9 °F /  3.3 °C 32.9 °F /  0.5 °C 30.07 in /  1018.2 hPa NW 5.0 mph /  8 km/h 10.0 mph /  16.1 km/h 82 % 0.00 in /  0 mm 0 W/m2
05:41 37.8 °F /  3.2 °C 33.1 °F /  0.6 °C 30.07 in /  1018.2 hPa NW 5.0 mph /  8 km/h 11.0 mph /  17.7 km/h 83 % 0.00 in /  0 mm 0 W/m2
05:46 37.8 °F /  3.2 °C 32.8 °F /  0.4 °C 30.07 in /  1018.2 hPa NW 5.0 mph /  8 km/h 11.0 mph /  17.7 km/h 82 % 0.00 in /  0 mm 5 W/m2
05:51 37.6 °F /  3.1 °C 32.6 °F /  0.3 °C 30.07 in /  1018.2 hPa NW 5.0 mph /  8 km/h 16.0 mph /  25.7 km/h 82 % 0.00 in /  0 mm 7 W/m2
05:56 37.6 °F /  3.1 °C 32.6 °F /  0.3 °C 30.07 in /  1018.2 hPa NW 6.0 mph /  9.7 km/h 16.0 mph /  25.7 km/h 82 % 0.00 in /  0 mm 9 W/m2
06:01 37.4 °F /  3 °C 32.4 °F /  0.2 °C 30.07 in /  1018.2 hPa NW 7.0 mph /  11.3 km/h 14.0 mph /  22.5 km/h 82 % 0.00 in /  0 mm 12 W/m2
06:06 37.2 °F /  2.9 °C 32.2 °F /  0.1 °C 30.08 in /  1018.5 hPa NW 6.0 mph /  9.7 km/h 14.0 mph /  22.5 km/h 82 % 0.00 in /  0 mm 18 W/m2
06:11 37.2 °F /  2.9 °C 32.2 °F /  0.1 °C 30.08 in /  1018.5 hPa NW 5.0 mph /  8 km/h 10.0 mph /  16.1 km/h 82 % 0.00 in /  0 mm 26 W/m2
06:16 37.2 °F /  2.9 °C 32.2 °F /  0.1 °C 30.08 in /  1018.5 hPa NW 4.0 mph /  6.4 km/h 9.0 mph /  14.5 km/h 82 % 0.00 in /  0 mm 25 W/m2
06:21 37.2 °F /  2.9 °C 32.2 °F /  0.1 °C 30.08 in /  1018.5 hPa NW 4.0 mph /  6.4 km/h 10.0 mph /  16.1 km/h 82 % 0.00 in /  0 mm 42 W/m2
06:26 37.2 °F /  2.9 °C 32.2 °F /  0.1 °C 30.08 in /  1018.5 hPa NW 5.0 mph /  8 km/h 10.0 mph /  16.1 km/h 82 % 0.00 in /  0 mm 47 W/m2
06:31 37.2 °F /  2.9 °C 32.5 °F /  0.3 °C 30.08 in /  1018.5 hPa NW 4.0 mph /  6.4 km/h 10.0 mph /  16.1 km/h 83 % 0.00 in /  0 mm 44 W/m2
06:36 37.2 °F /  2.9 °C 32.5 °F /  0.3 °C 30.09 in /  1018.8 hPa NW 3.0 mph /  4.8 km/h 14.0 mph /  22.5 km/h 83 % 0.00 in /  0 mm 53 W/m2
06:41 37.4 °F /  3 °C 32.4 °F /  0.2 °C 30.09 in /  1018.8 hPa NW 4.0 mph /  6.4 km/h 14.0 mph /  22.5 km/h 82 % 0.00 in /  0 mm 46 W/m2
06:46 37.6 °F /  3.1 °C 32.6 °F /  0.3 °C 30.09 in /  1018.8 hPa NNW 4.0 mph /  6.4 km/h 11.0 mph /  17.7 km/h 82 % 0.00 in /  0 mm 63 W/m2
06:51 37.6 °F /  3.1 °C 32.3 °F /  0.2 °C 30.09 in /  1018.8 hPa NNW 6.0 mph /  9.7 km/h 14.0 mph /  22.5 km/h 81 % 0.00 in /  0 mm 56 W/m2
06:56 37.6 °F /  3.1 °C 32.3 °F /  0.2 °C 30.09 in /  1018.8 hPa NW 7.0 mph /  11.3 km/h 14.0 mph /  22.5 km/h 81 % 0.00 in /  0 mm 72 W/m2
07:00 37.8 °F /  3.2 °C 32.5 °F /  0.3 °C 30.09 in /  1018.8 hPa NW 6.0 mph /  9.7 km/h 14.0 mph /  22.5 km/h 81 % 0.00 in /  0 mm 91 W/m2
07:05 37.9 °F /  3.3 °C 32.6 °F /  0.3 °C 30.09 in /  1018.8 hPa NW 5.0 mph /  8 km/h 14.0 mph /  22.5 km/h 81 % 0.00 in /  0 mm 46 W/m2
07:10 37.9 °F /  3.3 °C 32.6 °F /  0.3 °C 30.09 in /  1018.8 hPa NW 4.0 mph /  6.4 km/h 11.0 mph /  17.7 km/h 81 % 0.00 in /  0 mm 67 W/m2
07:15 38.1 °F /  3.4 °C 32.5 °F /  0.3 °C 30.09 in /  1018.8 hPa NW 4.0 mph /  6.4 km/h 11.0 mph /  17.7 km/h 80 % 0.00 in /  0 mm 97 W/m2
07:20 38.3 °F /  3.5 °C 32.7 °F /  0.4 °C 30.09 in /  1018.8 hPa NW 5.0 mph /  8 km/h 11.0 mph /  17.7 km/h 80 % 0.00 in /  0 mm 116 W/m2
07:25 38.8 °F /  3.8 °C 33.2 °F /  0.7 °C 30.09 in /  1018.8 hPa NNW 6.0 mph /  9.7 km/h 16.0 mph /  25.7 km/h 80 % 0.00 in /  0 mm 239 W/m2
07:30 39.6 °F /  4.2 °C 33.6 °F /  0.9 °C 30.09 in /  1018.8 hPa NNW 6.0 mph /  9.7 km/h 16.0 mph /  25.7 km/h 79 % 0.00 in /  0 mm 287 W/m2
07:35 40.1 °F /  4.5 °C 33.5 °F /  0.8 °C 30.09 in /  1018.8 hPa NNW 6.0 mph /  9.7 km/h 12.0 mph /  19.3 km/h 77 % 0.00 in /  0 mm 294 W/m2
07:40 40.6 °F /  4.8 °C 33.7 °F /  0.9 °C 30.09 in /  1018.8 hPa NNW 8.0 mph /  12.9 km/h 19.0 mph /  30.6 km/h 76 % 0.00 in /  0 mm 285 W/m2
07:45 40.8 °F /  4.9 °C 33.2 °F /  0.7 °C 30.09 in /  1018.8 hPa NNW 9.0 mph /  14.5 km/h 19.0 mph /  30.6 km/h 74 % 0.00 in /  0 mm 276 W/m2
07:50 40.8 °F /  4.9 °C 33.2 °F /  0.7 °C 30.09 in /  1018.8 hPa NNW 9.0 mph /  14.5 km/h 18.0 mph /  29 km/h 74 % 0.00 in /  0 mm 292 W/m2
07:55 41.0 °F /  5 °C 33.0 °F /  0.6 °C 30.09 in /  1018.8 hPa NNW 7.0 mph /  11.3 km/h 15.0 mph /  24.1 km/h 73 % 0.00 in /  0 mm 306 W/m2
08:00 41.2 °F /  5.1 °C 33.2 °F /  0.7 °C 30.10 in /  1019.2 hPa NNW 8.0 mph /  12.9 km/h 15.0 mph /  24.1 km/h 73 % 0.00 in /  0 mm 336 W/m2
08:05 41.4 °F /  5.2 °C 33.0 °F /  0.6 °C 30.10 in /  1019.2 hPa NNW 8.0 mph /  12.9 km/h 18.0 mph /  29 km/h 72 % 0.00 in /  0 mm 371 W/m2
08:10 41.4 °F /  5.2 °C 33.0 °F /  0.6 °C 30.10 in /  1019.2 hPa NNW 8.0 mph /  12.9 km/h 19.0 mph /  30.6 km/h 72 % 0.00 in /  0 mm 130 W/m2
08:15 41.2 °F /  5.1 °C 32.8 °F /  0.4 °C 30.10 in /  1019.2 hPa NNW 8.0 mph /  12.9 km/h 19.0 mph /  30.6 km/h 72 % 0.00 in /  0 mm 193 W/m2
08:20 41.2 °F /  5.1 °C 33.2 °F /  0.7 °C 30.10 in /  1019.2 hPa NNW 7.0 mph /  11.3 km/h 16.0 mph /  25.7 km/h 73 % 0.00 in /  0 mm 297 W/m2
08:25 41.7 °F /  5.4 °C 33.7 °F /  0.9 °C 30.10 in /  1019.2 hPa NNW 6.0 mph /  9.7 km/h 13.0 mph /  20.9 km/h 73 % 0.00 in /  0 mm 499 W/m2
08:30 42.4 °F /  5.8 °C 33.7 °F /  0.9 °C 30.10 in /  1019.2 hPa NNW 7.0 mph /  11.3 km/h 15.0 mph /  24.1 km/h 71 % 0.00 in /  0 mm 418 W/m2
08:35 42.8 °F /  6 °C 33.7 °F /  0.9 °C 30.10 in /  1019.2 hPa NNW 8.0 mph /  12.9 km/h 15.0 mph /  24.1 km/h 70 % 0.00 in /  0 mm 557 W/m2
08:40 43.2 °F /  6.2 °C 34.0 °F /  1.1 °C 30.10 in /  1019.2 hPa NNW 8.0 mph /  12.9 km/h 13.0 mph /  20.9 km/h 70 % 0.00 in /  0 mm 306 W/m2
08:45 43.5 °F /  6.4 °C 34.0 °F /  1.1 °C 30.10 in /  1019.2 hPa NNW 7.0 mph /  11.3 km/h 13.0 mph /  20.9 km/h 69 % 0.00 in /  0 mm 188 W/m2
08:50 43.3 °F /  6.3 °C 33.5 °F /  0.8 °C 30.10 in /  1019.2 hPa NNW 7.0 mph /  11.3 km/h 13.0 mph /  20.9 km/h 68 % 0.00 in /  0 mm 197 W/m2
08:55 43.0 °F /  6.1 °C 33.5 °F /  0.8 °C 30.10 in /  1019.2 hPa NNW 7.0 mph /  11.3 km/h 13.0 mph /  20.9 km/h 69 % 0.00 in /  0 mm 181 W/m2
09:00 42.8 °F /  6 °C 33.3 °F /  0.7 °C 30.11 in /  1019.5 hPa NNW 7.0 mph /  11.3 km/h 15.0 mph /  24.1 km/h 69 % 0.00 in /  0 mm 193 W/m2
09:05 42.4 °F /  5.8 °C 33.0 °F /  0.6 °C 30.10 in /  1019.2 hPa NNW 8.0 mph /  12.9 km/h 15.0 mph /  24.1 km/h 69 % 0.00 in /  0 mm 320 W/m2
09:10 42.6 °F /  5.9 °C 33.5 °F /  0.8 °C 30.10 in /  1019.2 hPa NNW 7.0 mph /  11.3 km/h 15.0 mph /  24.1 km/h 70 % 0.00 in /  0 mm 735 W/m2
09:15 43.5 °F /  6.4 °C 34.4 °F /  1.3 °C 30.10 in /  1019.2 hPa NNW 8.0 mph /  12.9 km/h 18.0 mph /  29 km/h 70 % 0.00 in /  0 mm 729 W/m2
09:20 44.2 °F /  6.8 °C 34.7 °F /  1.5 °C 30.10 in /  1019.2 hPa NNW 8.0 mph /  12.9 km/h 18.0 mph /  29 km/h 69 % 0.00 in /  0 mm 729 W/m2
09:25 44.8 °F /  7.1 °C 34.5 °F /  1.4 °C 30.10 in /  1019.2 hPa NNW 9.0 mph /  14.5 km/h 20.0 mph /  32.2 km/h 67 % 0.00 in /  0 mm 671 W/m2
09:30 44.8 °F /  7.1 °C 33.7 °F /  0.9 °C 30.10 in /  1019.2 hPa NNW 9.0 mph /  14.5 km/h 20.0 mph /  32.2 km/h 65 % 0.00 in /  0 mm 244 W/m2
09:35 44.8 °F /  7.1 °C 33.7 °F /  0.9 °C 30.11 in /  1019.5 hPa North 9.0 mph /  14.5 km/h 15.0 mph /  24.1 km/h 65 % 0.00 in /  0 mm 306 W/m2
09:40 44.2 °F /  6.8 °C 33.2 °F /  0.7 °C 30.11 in /  1019.5 hPa North 8.0 mph /  12.9 km/h 15.0 mph /  24.1 km/h 65 % 0.00 in /  0 mm 367 W/m2
09:45 43.9 °F /  6.6 °C 32.5 °F /  0.3 °C 30.11 in /  1019.5 hPa North 7.0 mph /  11.3 km/h 15.0 mph /  24.1 km/h 64 % 0.00 in /  0 mm 202 W/m2
09:50 43.9 °F /  6.6 °C 33.3 °F /  0.7 °C 30.11 in /  1019.5 hPa North 8.0 mph /  12.9 km/h 18.0 mph /  29 km/h 66 % 0.00 in /  0 mm 250 W/m2
09:55 43.9 °F /  6.6 °C 32.5 °F /  0.3 °C 30.11 in /  1019.5 hPa North 9.0 mph /  14.5 km/h 18.0 mph /  29 km/h 64 % 0.00 in /  0 mm 404 W/m2
10:00 43.9 °F /  6.6 °C 32.5 °F /  0.3 °C 30.11 in /  1019.5 hPa NNE 9.0 mph /  14.5 km/h 18.0 mph /  29 km/h 64 % 0.00 in /  0 mm 404 W/m2
10:05 44.1 °F /  6.7 °C 33.0 °F /  0.6 °C 30.11 in /  1019.5 hPa North 9.0 mph /  14.5 km/h 18.0 mph /  29 km/h 65 % 0.00 in /  0 mm 329 W/m2
10:11 44.1 °F /  6.7 °C 33.0 °F /  0.6 °C 30.10 in /  1019.2 hPa North 8.0 mph /  12.9 km/h 13.0 mph /  20.9 km/h 65 % 0.00 in /  0 mm 250 W/m2
10:16 44.2 °F /  6.8 °C 33.2 °F /  0.7 °C 30.11 in /  1019.5 hPa North 8.0 mph /  12.9 km/h 18.0 mph /  29 km/h 65 % 0.00 in /  0 mm 207 W/m2
10:21 44.2 °F /  6.8 °C 32.8 °F /  0.4 °C 30.10 in /  1019.2 hPa NNW 8.0 mph /  12.9 km/h 18.0 mph /  29 km/h 64 % 0.00 in /  0 mm 262 W/m2
10:26 44.2 °F /  6.8 °C 33.2 °F /  0.7 °C 30.10 in /  1019.2 hPa NNW 8.0 mph /  12.9 km/h 18.0 mph /  29 km/h 65 % 0.00 in /  0 mm 193 W/m2
10:31 44.1 °F /  6.7 °C 32.7 °F /  0.4 °C 30.11 in /  1019.5 hPa North 8.0 mph /  12.9 km/h 18.0 mph /  29 km/h 64 % 0.00 in /  0 mm 167 W/m2
10:36 43.9 °F /  6.6 °C 32.9 °F /  0.5 °C 30.11 in /  1019.5 hPa North 6.0 mph /  9.7 km/h 14.0 mph /  22.5 km/h 65 % 0.00 in /  0 mm 192 W/m2
10:41 44.1 °F /  6.7 °C 32.7 °F /  0.4 °C 30.11 in /  1019.5 hPa North 6.0 mph /  9.7 km/h 14.0 mph /  22.5 km/h 64 % 0.00 in /  0 mm 195 W/m2
10:46 44.1 °F /  6.7 °C 32.7 °F /  0.4 °C 30.11 in /  1019.5 hPa North 6.0 mph /  9.7 km/h 13.0 mph /  20.9 km/h 64 % 0.00 in /  0 mm 160 W/m2
10:51 44.1 °F /  6.7 °C 32.7 °F /  0.4 °C 30.11 in /  1019.5 hPa North 5.0 mph /  8 km/h 12.0 mph /  19.3 km/h 64 % 0.00 in /  0 mm 163 W/m2
10:56 43.9 °F /  6.6 °C 32.9 °F /  0.5 °C 30.11 in /  1019.5 hPa NNE 7.0 mph /  11.3 km/h 19.0 mph /  30.6 km/h 65 % 0.00 in /  0 mm 357 W/m2
10:57 43.9 °F /  6.6 °C 33.3 °F /  0.7 °C 30.11 in /  1019.5 hPa NNE 8.0 mph /  12.9 km/h 19.0 mph /  30.6 km/h 66 % 0.00 in /  0 mm 357 W/m2
11:02 44.1 °F /  6.7 °C 33.4 °F /  0.8 °C 30.11 in /  1019.5 hPa NNE 8.0 mph /  12.9 km/h 14.0 mph /  22.5 km/h 66 % 0.00 in /  0 mm 288 W/m2
11:08 44.1 °F /  6.7 °C 33.4 °F /  0.8 °C 30.11 in /  1019.5 hPa NNE 7.0 mph /  11.3 km/h 13.0 mph /  20.9 km/h 66 % 0.00 in /  0 mm 345 W/m2
11:13 44.2 °F /  6.8 °C 33.6 °F /  0.9 °C 30.11 in /  1019.5 hPa NNE 6.0 mph /  9.7 km/h 13.0 mph /  20.9 km/h 66 % 0.00 in /  0 mm 186 W/m2
11:18 44.2 °F /  6.8 °C 33.2 °F /  0.7 °C 30.12 in /  1019.9 hPa NNE 7.0 mph /  11.3 km/h 15.0 mph /  24.1 km/h 65 % 0.00 in /  0 mm 302 W/m2
11:23 44.4 °F /  6.9 °C 33.0 °F /  0.6 °C 30.11 in /  1019.5 hPa North 8.0 mph /  12.9 km/h 15.0 mph /  24.1 km/h 64 % 0.00 in /  0 mm 246 W/m2
11:28 44.4 °F /  6.9 °C 33.0 °F /  0.6 °C 30.12 in /  1019.9 hPa North 7.0 mph /  11.3 km/h 15.0 mph /  24.1 km/h 64 % 0.00 in /  0 mm 218 W/m2
11:33 44.6 °F /  7 °C 32.8 °F /  0.4 °C 30.12 in /  1019.9 hPa North 6.0 mph /  9.7 km/h 15.0 mph /  24.1 km/h 63 % 0.00 in /  0 mm 334 W/m2
11:38 45.0 °F /  7.2 °C 33.5 °F /  0.8 °C 30.12 in /  1019.9 hPa North 6.0 mph /  9.7 km/h 15.0 mph /  24.1 km/h 64 % 0.00 in /  0 mm 229 W/m2
11:43 45.1 °F /  7.3 °C 33.3 °F /  0.7 °C 30.12 in /  1019.9 hPa NNW 6.0 mph /  9.7 km/h 14.0 mph /  22.5 km/h 63 % 0.00 in /  0 mm 141 W/m2
11:48 45.0 °F /  7.2 °C 32.3 °F /  0.2 °C 30.12 in /  1019.9 hPa North 6.0 mph /  9.7 km/h 14.0 mph /  22.5 km/h 61 % 0.00 in /  0 mm 188 W/m2
11:53 44.8 °F /  7.1 °C 31.7 °F /  -0.2 °C 30.12 in /  1019.9 hPa North 6.0 mph /  9.7 km/h 14.0 mph /  22.5 km/h 60 % 0.00 in /  0 mm 255 W/m2
11:58 45.0 °F /  7.2 °C 31.9 °F /  -0.1 °C 30.12 in /  1019.9 hPa North 6.0 mph /  9.7 km/h 12.0 mph /  19.3 km/h 60 % 0.00 in /  0 mm 352 W/m2
12:03 45.3 °F /  7.4 °C 33.1 °F /  0.6 °C 30.12 in /  1019.9 hPa North 6.0 mph /  9.7 km/h 12.0 mph /  19.3 km/h 62 % 0.00 in /  0 mm 366 W/m2
12:08 45.7 °F /  7.6 °C 32.6 °F /  0.3 °C 30.12 in /  1019.9 hPa North 7.0 mph /  11.3 km/h 13.0 mph /  20.9 km/h 60 % 0.00 in /  0 mm 369 W/m2
12:13 45.9 °F /  7.7 °C 32.3 °F /  0.2 °C 30.12 in /  1019.9 hPa North 7.0 mph /  11.3 km/h 13.0 mph /  20.9 km/h 59 % 0.00 in /  0 mm 452 W/m2
12:18 46.4 °F /  8 °C 32.4 °F /  0.2 °C 30.12 in /  1019.9 hPa NNW 7.0 mph /  11.3 km/h 14.0 mph /  22.5 km/h 58 % 0.00 in /  0 mm 475 W/m2
12:23 46.6 °F /  8.1 °C 32.1 °F /  0.1 °C 30.12 in /  1019.9 hPa NNW 7.0 mph /  11.3 km/h 14.0 mph /  22.5 km/h 57 % 0.00 in /  0 mm 369 W/m2
12:28 46.6 °F /  8.1 °C 31.7 °F /  -0.2 °C 30.12 in /  1019.9 hPa North 7.0 mph /  11.3 km/h 13.0 mph /  20.9 km/h 56 % 0.00 in /  0 mm 269 W/m2
12:33 46.9 °F /  8.3 °C 32.0 °F /  0 °C 30.12 in /  1019.9 hPa NNW 6.0 mph /  9.7 km/h 12.0 mph /  19.3 km/h 56 % 0.00 in /  0 mm 278 W/m2
12:38 47.7 °F /  8.7 °C 33.2 °F /  0.7 °C 30.12 in /  1019.9 hPa NNW 6.0 mph /  9.7 km/h 12.0 mph /  19.3 km/h 57 % 0.00 in /  0 mm 338 W/m2
12:43 48.0 °F /  8.9 °C 32.2 °F /  0.1 °C 30.12 in /  1019.9 hPa North 5.0 mph /  8 km/h 12.0 mph /  19.3 km/h 54 % 0.00 in /  0 mm 230 W/m2
12:48 47.8 °F /  8.8 °C 31.5 °F /  -0.3 °C 30.11 in /  1019.5 hPa North 6.0 mph /  9.7 km/h 15.0 mph /  24.1 km/h 53 % 0.00 in /  0 mm 232 W/m2
12:53 46.9 °F /  8.3 °C 30.7 °F /  -0.7 °C 30.12 in /  1019.9 hPa North 7.0 mph /  11.3 km/h 15.0 mph /  24.1 km/h 53 % 0.00 in /  0 mm 332 W/m2
12:58 47.5 °F /  8.6 °C 32.6 °F /  0.3 °C 30.11 in /  1019.5 hPa NNE 6.0 mph /  9.7 km/h 13.0 mph /  20.9 km/h 56 % 0.00 in /  0 mm 991 W/m2
13:03 48.0 °F /  8.9 °C 32.6 °F /  0.3 °C 30.11 in /  1019.5 hPa NNE 5.0 mph /  8 km/h 11.0 mph /  17.7 km/h 55 % 0.00 in /  0 mm 1090 W/m2
13:08 48.4 °F /  9.1 °C 32.9 °F /  0.5 °C 30.11 in /  1019.5 hPa NNE 6.0 mph /  9.7 km/h 14.0 mph /  22.5 km/h 55 % 0.00 in /  0 mm 248 W/m2
13:13 48.4 °F /  9.1 °C 32.0 °F /  0 °C 30.11 in /  1019.5 hPa NNE 6.0 mph /  9.7 km/h 14.0 mph /  22.5 km/h 53 % 0.00 in /  0 mm 237 W/m2
13:18 47.8 °F /  8.8 °C 31.5 °F /  -0.3 °C 30.11 in /  1019.5 hPa NNE 7.0 mph /  11.3 km/h 15.0 mph /  24.1 km/h 53 % 0.00 in /  0 mm 265 W/m2
13:23 47.1 °F /  8.4 °C 32.2 °F /  0.1 °C 30.11 in /  1019.5 hPa NNE 8.0 mph /  12.9 km/h 15.0 mph /  24.1 km/h 56 % 0.00 in /  0 mm 693 W/m2
13:28 47.5 °F /  8.6 °C 32.6 °F /  0.3 °C 30.11 in /  1019.5 hPa NNE 6.0 mph /  9.7 km/h 12.0 mph /  19.3 km/h 56 % 0.00 in /  0 mm 693 W/m2
13:33 47.8 °F /  8.8 °C 32.0 °F /  0 °C 30.11 in /  1019.5 hPa NNE 6.0 mph /  9.7 km/h 12.0 mph /  19.3 km/h 54 % 0.00 in /  0 mm 299 W/m2
13:39 48.0 °F /  8.9 °C 31.7 °F /  -0.2 °C 30.11 in /  1019.5 hPa NNE 5.0 mph /  8 km/h 12.0 mph /  19.3 km/h 53 % 0.00 in /  0 mm 294 W/m2
13:44 48.2 °F /  9 °C 30.4 °F /  -0.9 °C 30.11 in /  1019.5 hPa North 6.0 mph /  9.7 km/h 13.0 mph /  20.9 km/h 50 % 0.00 in /  0 mm 290 W/m2
13:49 48.4 °F /  9.1 °C 31.5 °F /  -0.3 °C 30.11 in /  1019.5 hPa North 4.0 mph /  6.4 km/h 13.0 mph /  20.9 km/h 52 % 0.00 in /  0 mm 309 W/m2
13:54 48.6 °F /  9.2 °C 31.7 °F /  -0.2 °C 30.11 in /  1019.5 hPa NNW 3.0 mph /  4.8 km/h 10.0 mph /  16.1 km/h 52 % 0.00 in /  0 mm 167 W/m2
13:59 48.4 °F /  9.1 °C 30.6 °F /  -0.8 °C 30.11 in /  1019.5 hPa NNW 5.0 mph /  8 km/h 11.0 mph /  17.7 km/h 50 % 0.00 in /  0 mm 234 W/m2
14:04 48.6 °F /  9.2 °C 31.7 °F /  -0.2 °C 30.11 in /  1019.5 hPa NNW 6.0 mph /  9.7 km/h 13.0 mph /  20.9 km/h 52 % 0.00 in /  0 mm 1034 W/m2
14:09 49.1 °F /  9.5 °C 35.4 °F /  1.9 °C 30.12 in /  1019.9 hPa NNW 8.0 mph /  12.9 km/h 19.0 mph /  30.6 km/h 59 % 0.00 in /  0 mm 162 W/m2
14:14 47.8 °F /  8.8 °C 35.0 °F /  1.7 °C 30.12 in /  1019.9 hPa NW 10.0 mph /  16.1 km/h 20.0 mph /  32.2 km/h 61 % 0.00 in /  0 mm 130 W/m2
14:19 46.6 °F /  8.1 °C 35.8 °F /  2.1 °C 30.12 in /  1019.9 hPa NW 11.0 mph /  17.7 km/h 20.0 mph /  32.2 km/h 66 % 0.00 in /  0 mm 169 W/m2
14:24 45.7 °F /  7.6 °C 35.3 °F /  1.8 °C 30.12 in /  1019.9 hPa NW 10.0 mph /  16.1 km/h 16.0 mph /  25.7 km/h 67 % 0.00 in /  0 mm 165 W/m2
14:29 45.0 °F /  7.2 °C 34.7 °F /  1.5 °C 30.13 in /  1020.2 hPa NW 10.0 mph /  16.1 km/h 15.0 mph /  24.1 km/h 67 % 0.00 in /  0 mm 132 W/m2
14:34 44.6 °F /  7 °C 35.1 °F /  1.7 °C 30.13 in /  1020.2 hPa WNW 10.0 mph /  16.1 km/h 16.0 mph /  25.7 km/h 69 % 0.00 in /  0 mm 118 W/m2
14:39 44.2 °F /  6.8 °C 35.1 °F /  1.7 °C 30.12 in /  1019.9 hPa WNW 7.0 mph /  11.3 km/h 16.0 mph /  25.7 km/h 70 % 0.00 in /  0 mm 130 W/m2
14:44 44.2 °F /  6.8 °C 33.6 °F /  0.9 °C 30.12 in /  1019.9 hPa NW 6.0 mph /  9.7 km/h 14.0 mph /  22.5 km/h 66 % 0.00 in /  0 mm 149 W/m2
14:49 44.2 °F /  6.8 °C 33.2 °F /  0.7 °C 30.12 in /  1019.9 hPa NW 6.0 mph /  9.7 km/h 14.0 mph /  22.5 km/h 65 % 0.00 in /  0 mm 160 W/m2
14:50 44.2 °F /  6.8 °C 33.2 °F /  0.7 °C 30.12 in /  1019.9 hPa NW 6.0 mph /  9.7 km/h 14.0 mph /  22.5 km/h 65 % 0.00 in /  0 mm 162 W/m2
14:55 44.4 °F /  6.9 °C 33.0 °F /  0.6 °C 30.12 in /  1019.9 hPa WNW 6.0 mph /  9.7 km/h 11.0 mph /  17.7 km/h 64 % 0.00 in /  0 mm 213 W/m2
15:00 44.8 °F /  7.1 °C 33.3 °F /  0.7 °C 30.12 in /  1019.9 hPa WNW 5.0 mph /  8 km/h 10.0 mph /  16.1 km/h 64 % 0.00 in /  0 mm 279 W/m2
15:05 45.1 °F /  7.3 °C 32.9 °F /  0.5 °C 30.12 in /  1019.9 hPa WNW 4.0 mph /  6.4 km/h 8.0 mph /  12.9 km/h 62 % 0.00 in /  0 mm 334 W/m2
15:10 45.7 °F /  7.6 °C 33.0 °F /  0.6 °C 30.12 in /  1019.9 hPa WNW 4.0 mph /  6.4 km/h 9.0 mph /  14.5 km/h 61 % 0.00 in /  0 mm 295 W/m2
15:15 46.4 °F /  8 °C 32.8 °F /  0.4 °C 30.12 in /  1019.9 hPa WNW 4.0 mph /  6.4 km/h 9.0 mph /  14.5 km/h 59 % 0.00 in /  0 mm 283 W/m2
15:20 46.8 °F /  8.2 °C 31.9 °F /  -0.1 °C 30.12 in /  1019.9 hPa NW 5.0 mph /  8 km/h 14.0 mph /  22.5 km/h 56 % 0.00 in /  0 mm 250 W/m2
15:25 47.1 °F /  8.4 °C 33.1 °F /  0.6 °C 30.12 in /  1019.9 hPa NW 6.0 mph /  9.7 km/h 14.0 mph /  22.5 km/h 58 % 0.00 in /  0 mm 269 W/m2
15:30 47.1 °F /  8.4 °C 32.7 °F /  0.4 °C 30.12 in /  1019.9 hPa NNW 5.0 mph /  8 km/h 11.0 mph /  17.7 km/h 57 % 0.00 in /  0 mm 295 W/m2
15:35 46.9 °F /  8.3 °C 31.6 °F /  -0.2 °C 30.11 in /  1019.5 hPa North 5.0 mph /  8 km/h 10.0 mph /  16.1 km/h 55 % 0.00 in /  0 mm 278 W/m2
15:40 47.1 °F /  8.4 °C 32.2 °F /  0.1 °C 30.11 in /  1019.5 hPa North 4.0 mph /  6.4 km/h 10.0 mph /  16.1 km/h 56 % 0.00 in /  0 mm 288 W/m2
15:45 46.9 °F /  8.3 °C 31.6 °F /  -0.2 °C 30.11 in /  1019.5 hPa NNE 4.0 mph /  6.4 km/h 9.0 mph /  14.5 km/h 55 % 0.00 in /  0 mm 279 W/m2
15:50 46.9 °F /  8.3 °C 30.7 °F /  -0.7 °C 30.11 in /  1019.5 hPa NNE 4.0 mph /  6.4 km/h 9.0 mph /  14.5 km/h 53 % 0.00 in /  0 mm 276 W/m2
15:55 47.1 °F /  8.4 °C 30.9 °F /  -0.6 °C 30.11 in /  1019.5 hPa North 2.0 mph /  3.2 km/h 8.0 mph /  12.9 km/h 53 % 0.00 in /  0 mm 278 W/m2
16:00 47.5 °F /  8.6 °C 31.2 °F /  -0.4 °C 30.11 in /  1019.5 hPa NNW 1.0 mph /  1.6 km/h 6.0 mph /  9.7 km/h 53 % 0.00 in /  0 mm 248 W/m2
16:05 47.8 °F /  8.8 °C 31.5 °F /  -0.3 °C 30.11 in /  1019.5 hPa NW 3.0 mph /  4.8 km/h 9.0 mph /  14.5 km/h 53 % 0.00 in /  0 mm 197 W/m2
16:10 48.0 °F /  8.9 °C 31.7 °F /  -0.2 °C 30.11 in /  1019.5 hPa NW 5.0 mph /  8 km/h 11.0 mph /  17.7 km/h 53 % 0.00 in /  0 mm 181 W/m2
16:15 48.0 °F /  8.9 °C 32.2 °F /  0.1 °C 30.11 in /  1019.5 hPa NW 6.0 mph /  9.7 km/h 11.0 mph /  17.7 km/h 54 % 0.00 in /  0 mm 178 W/m2
16:20 48.0 °F /  8.9 °C 31.7 °F /  -0.2 °C 30.11 in /  1019.5 hPa NW 4.0 mph /  6.4 km/h 10.0 mph /  16.1 km/h 53 % 0.00 in /  0 mm 264 W/m2
16:25 48.2 °F /  9 °C 32.3 °F /  0.2 °C 30.11 in /  1019.5 hPa NW 4.0 mph /  6.4 km/h 9.0 mph /  14.5 km/h 54 % 0.00 in /  0 mm 330 W/m2
16:30 48.7 °F /  9.3 °C 32.8 °F /  0.4 °C 30.11 in /  1019.5 hPa WNW 5.0 mph /  8 km/h 9.0 mph /  14.5 km/h 54 % 0.00 in /  0 mm 694 W/m2
16:35 49.5 °F /  9.7 °C 32.1 °F /  0.1 °C 30.11 in /  1019.5 hPa West 5.0 mph /  8 km/h 9.0 mph /  14.5 km/h 51 % 0.00 in /  0 mm 777 W/m2
16:40 49.8 °F /  9.9 °C 31.9 °F /  -0.1 °C 30.11 in /  1019.5 hPa NW 7.0 mph /  11.3 km/h 15.0 mph /  24.1 km/h 50 % 0.00 in /  0 mm 738 W/m2
16:42 49.6 °F /  9.8 °C 31.2 °F /  -0.4 °C 30.11 in /  1019.5 hPa NNW 7.0 mph /  11.3 km/h 15.0 mph /  24.1 km/h 49 % 0.00 in /  0 mm 272 W/m2
16:47 48.6 °F /  9.2 °C 31.7 °F /  -0.2 °C 30.11 in /  1019.5 hPa NNE 9.0 mph /  14.5 km/h 15.0 mph /  24.1 km/h 52 % 0.00 in /  0 mm 218 W/m2
16:52 47.8 °F /  8.8 °C 32.0 °F /  0 °C 30.11 in /  1019.5 hPa NNE 6.0 mph /  9.7 km/h 14.0 mph /  22.5 km/h 54 % 0.00 in /  0 mm 190 W/m2
16:57 47.7 °F /  8.7 °C 32.3 °F /  0.2 °C 30.11 in /  1019.5 hPa NNE 3.0 mph /  4.8 km/h 9.0 mph /  14.5 km/h 55 % 0.00 in /  0 mm 186 W/m2
17:02 47.5 °F /  8.6 °C 32.1 °F /  0.1 °C 30.11 in /  1019.5 hPa NE 2.0 mph /  3.2 km/h 7.0 mph /  11.3 km/h 55 % 0.00 in /  0 mm 185 W/m2
17:07 47.5 °F /  8.6 °C 31.6 °F /  -0.2 °C 30.11 in /  1019.5 hPa NNE 4.0 mph /  6.4 km/h 10.0 mph /  16.1 km/h 54 % 0.00 in /  0 mm 199 W/m2
17:12 47.3 °F /  8.5 °C 32.4 °F /  0.2 °C 30.11 in /  1019.5 hPa NNE 5.0 mph /  8 km/h 10.0 mph /  16.1 km/h 56 % 0.00 in /  0 mm 543 W/m2
17:17 47.5 °F /  8.6 °C 32.6 °F /  0.3 °C 30.11 in /  1019.5 hPa NE 4.0 mph /  6.4 km/h 10.0 mph /  16.1 km/h 56 % 0.00 in /  0 mm 232 W/m2
17:22 47.5 °F /  8.6 °C 32.6 °F /  0.3 °C 30.11 in /  1019.5 hPa NE 4.0 mph /  6.4 km/h 9.0 mph /  14.5 km/h 56 % 0.00 in /  0 mm 179 W/m2
17:27 47.3 °F /  8.5 °C 31.5 °F /  -0.3 °C 30.11 in /  1019.5 hPa NNE 4.0 mph /  6.4 km/h 9.0 mph /  14.5 km/h 54 % 0.00 in /  0 mm 223 W/m2
17:32 47.5 °F /  8.6 °C 32.1 °F /  0.1 °C 30.11 in /  1019.5 hPa NE 4.0 mph /  6.4 km/h 9.0 mph /  14.5 km/h 55 % 0.00 in /  0 mm 527 W/m2
17:37 47.7 °F /  8.7 °C 32.3 °F /  0.2 °C 30.11 in /  1019.5 hPa ENE 3.0 mph /  4.8 km/h 8.0 mph /  12.9 km/h 55 % 0.00 in /  0 mm 236 W/m2
17:42 48.0 °F /  8.9 °C 32.6 °F /  0.3 °C 30.11 in /  1019.5 hPa ENE 2.0 mph /  3.2 km/h 8.0 mph /  12.9 km/h 55 % 0.00 in /  0 mm 438 W/m2
17:47 48.6 °F /  9.2 °C 32.7 °F /  0.4 °C 30.11 in /  1019.5 hPa ENE 2.0 mph /  3.2 km/h 7.0 mph /  11.3 km/h 54 % 0.00 in /  0 mm 221 W/m2
17:52 48.6 °F /  9.2 °C 32.2 °F /  0.1 °C 30.11 in /  1019.5 hPa NE 3.0 mph /  4.8 km/h 9.0 mph /  14.5 km/h 53 % 0.00 in /  0 mm 178 W/m2
17:57 48.7 °F /  9.3 °C 32.4 °F /  0.2 °C 30.11 in /  1019.5 hPa NNE 3.0 mph /  4.8 km/h 9.0 mph /  14.5 km/h 53 % 0.00 in /  0 mm 401 W/m2
18:02 48.4 °F /  9.1 °C 32.0 °F /  0 °C 30.11 in /  1019.5 hPa NE 5.0 mph /  8 km/h 13.0 mph /  20.9 km/h 53 % 0.00 in /  0 mm 88 W/m2
18:07 47.3 °F /  8.5 °C 31.9 °F /  -0.1 °C 30.12 in /  1019.9 hPa NE 8.0 mph /  12.9 km/h 16.0 mph /  25.7 km/h 55 % 0.00 in /  0 mm 77 W/m2
18:13 46.8 °F /  8.2 °C 32.8 °F /  0.4 °C 30.12 in /  1019.9 hPa NNE 7.0 mph /  11.3 km/h 16.0 mph /  25.7 km/h 58 % 0.00 in /  0 mm 65 W/m2
18:18 46.0 °F /  7.8 °C 32.9 °F /  0.5 °C 30.12 in /  1019.9 hPa NNE 6.0 mph /  9.7 km/h 14.0 mph /  22.5 km/h 60 % 0.00 in /  0 mm 60 W/m2
18:23 45.7 °F /  7.6 °C 33.4 °F /  0.8 °C 30.12 in /  1019.9 hPa NNE 7.0 mph /  11.3 km/h 12.0 mph /  19.3 km/h 62 % 0.00 in /  0 mm 72 W/m2
18:28 45.3 °F /  7.4 °C 33.5 °F /  0.8 °C 30.12 in /  1019.9 hPa NNE 4.0 mph /  6.4 km/h 11.0 mph /  17.7 km/h 63 % 0.00 in /  0 mm 90 W/m2
18:33 45.3 °F /  7.4 °C 33.1 °F /  0.6 °C 30.12 in /  1019.9 hPa NE 2.0 mph /  3.2 km/h 6.0 mph /  9.7 km/h 62 % 0.00 in /  0 mm 81 W/m2
18:38 45.3 °F /  7.4 °C 32.7 °F /  0.4 °C 30.12 in /  1019.9 hPa NE 2.0 mph /  3.2 km/h 7.0 mph /  11.3 km/h 61 % 0.00 in /  0 mm 93 W/m2
18:43 45.1 °F /  7.3 °C 32.5 °F /  0.3 °C 30.12 in /  1019.9 hPa NE 3.0 mph /  4.8 km/h 9.0 mph /  14.5 km/h 61 % 0.00 in /  0 mm 83 W/m2
18:48 45.1 °F /  7.3 °C 32.1 °F /  0.1 °C 30.12 in /  1019.9 hPa NE 2.0 mph /  3.2 km/h 9.0 mph /  14.5 km/h 60 % 0.00 in /  0 mm 72 W/m2
18:53 45.3 °F /  7.4 °C 31.8 °F /  -0.1 °C 30.12 in /  1019.9 hPa NE 1.0 mph /  1.6 km/h 7.0 mph /  11.3 km/h 59 % 0.00 in /  0 mm 156 W/m2
18:58 45.7 °F /  7.6 °C 31.3 °F /  -0.4 °C 30.12 in /  1019.9 hPa NE 2.0 mph /  3.2 km/h 8.0 mph /  12.9 km/h 57 % 0.00 in /  0 mm 81 W/m2
19:03 45.7 °F /  7.6 °C 31.7 °F /  -0.2 °C 30.12 in /  1019.9 hPa NE 2.0 mph /  3.2 km/h 8.0 mph /  12.9 km/h 58 % 0.00 in /  0 mm 77 W/m2
19:08 45.7 °F /  7.6 °C 31.3 °F /  -0.4 °C 30.12 in /  1019.9 hPa NNE 4.0 mph /  6.4 km/h 10.0 mph /  16.1 km/h 57 % 0.00 in /  0 mm 74 W/m2
19:13 45.3 °F /  7.4 °C 31.0 °F /  -0.6 °C 30.12 in /  1019.9 hPa NNE 4.0 mph /  6.4 km/h 10.0 mph /  16.1 km/h 57 % 0.00 in /  0 mm 67 W/m2
19:18 45.3 °F /  7.4 °C 31.0 °F /  -0.6 °C 30.12 in /  1019.9 hPa NNE 4.0 mph /  6.4 km/h 12.0 mph /  19.3 km/h 57 % 0.00 in /  0 mm 56 W/m2
19:23 45.1 °F /  7.3 °C 31.2 °F /  -0.4 °C 30.12 in /  1019.9 hPa NNE 5.0 mph /  8 km/h 12.0 mph /  19.3 km/h 58 % 0.00 in /  0 mm 49 W/m2
19:28 45.0 °F /  7.2 °C 31.5 °F /  -0.3 °C 30.12 in /  1019.9 hPa NE 5.0 mph /  8 km/h 12.0 mph /  19.3 km/h 59 % 0.00 in /  0 mm 47 W/m2
19:33 44.8 °F /  7.1 °C 31.7 °F /  -0.2 °C 30.13 in /  1020.2 hPa NE 4.0 mph /  6.4 km/h 10.0 mph /  16.1 km/h 60 % 0.00 in /  0 mm 51 W/m2
19:38 44.6 °F /  7 °C 31.6 °F /  -0.2 °C 30.13 in /  1020.2 hPa NNE 3.0 mph /  4.8 km/h 8.0 mph /  12.9 km/h 60 % 0.00 in /  0 mm 35 W/m2
19:43 44.4 °F /  6.9 °C 31.8 °F /  -0.1 °C 30.13 in /  1020.2 hPa NNE 4.0 mph /  6.4 km/h 8.0 mph /  12.9 km/h 61 % 0.00 in /  0 mm 32 W/m2
19:48 44.2 °F /  6.8 °C 31.6 °F /  -0.2 °C 30.13 in /  1020.2 hPa NNE 5.0 mph /  8 km/h 9.0 mph /  14.5 km/h 61 % 0.00 in /  0 mm 23 W/m2
19:53 44.2 °F /  6.8 °C 32.0 °F /  0 °C 30.13 in /  1020.2 hPa NNE 4.0 mph /  6.4 km/h 9.0 mph /  14.5 km/h 62 % 0.00 in /  0 mm 19 W/m2
19:58 44.1 °F /  6.7 °C 32.3 °F /  0.2 °C 30.13 in /  1020.2 hPa NNE 4.0 mph /  6.4 km/h 8.0 mph /  12.9 km/h 63 % 0.00 in /  0 mm 16 W/m2
20:03 43.9 °F /  6.6 °C 32.5 °F /  0.3 °C 30.13 in /  1020.2 hPa NNE 2.0 mph /  3.2 km/h 8.0 mph /  12.9 km/h 64 % 0.00 in /  0 mm 14 W/m2
20:08 43.9 °F /  6.6 °C 32.5 °F /  0.3 °C 30.14 in /  1020.5 hPa North 1.0 mph /  1.6 km/h 7.0 mph /  11.3 km/h 64 % 0.00 in /  0 mm 11 W/m2
20:13 43.5 °F /  6.4 °C 32.1 °F /  0.1 °C 30.14 in /  1020.5 hPa NNE 2.0 mph /  3.2 km/h 7.0 mph /  11.3 km/h 64 % 0.00 in /  0 mm 9 W/m2
20:18 43.5 °F /  6.4 °C 32.1 °F /  0.1 °C 30.13 in /  1020.2 hPa NNE 2.0 mph /  3.2 km/h 6.0 mph /  9.7 km/h 64 % 0.00 in /  0 mm 7 W/m2
20:23 43.3 °F /  6.3 °C 32.0 °F /  0 °C 30.14 in /  1020.5 hPa NNE 1.0 mph /  1.6 km/h 6.0 mph /  9.7 km/h 64 % 0.00 in /  0 mm 5 W/m2
20:28 43.3 °F /  6.3 °C 32.4 °F /  0.2 °C 30.14 in /  1020.5 hPa Calm   4.0 mph /  6.4 km/h 65 % 0.00 in /  0 mm 0 W/m2
20:33 43.2 °F /  6.2 °C 32.2 °F /  0.1 °C 30.14 in /  1020.5 hPa Calm   4.0 mph /  6.4 km/h 65 % 0.00 in /  0 mm 0 W/m2
20:38 43.0 °F /  6.1 °C 32.0 °F /  0 °C 30.14 in /  1020.5 hPa Calm   3.0 mph /  4.8 km/h 65 % 0.00 in /  0 mm 0 W/m2
20:43 43.0 °F /  6.1 °C 32.4 °F /  0.2 °C 30.14 in /  1020.5 hPa Calm   6.0 mph /  9.7 km/h 66 % 0.00 in /  0 mm 0 W/m2
20:48 42.8 °F /  6 °C 32.2 °F /  0.1 °C 30.14 in /  1020.5 hPa NNE 1.0 mph /  1.6 km/h 6.0 mph /  9.7 km/h 66 % 0.00 in /  0 mm 0 W/m2
20:52 42.8 °F /  6 °C 32.2 °F /  0.1 °C 30.14 in /  1020.5 hPa Calm   2.0 mph /  3.2 km/h 66 % 0.00 in /  0 mm 0 W/m2
20:57 42.8 °F /  6 °C 32.6 °F /  0.3 °C 30.14 in /  1020.5 hPa Calm   2.0 mph /  3.2 km/h 67 % 0.00 in /  0 mm 0 W/m2
21:02 42.6 °F /  5.9 °C 32.4 °F /  0.2 °C 30.14 in /  1020.5 hPa Calm   2.0 mph /  3.2 km/h 67 % 0.00 in /  0 mm 0 W/m2
21:07 42.4 °F /  5.8 °C 32.3 °F /  0.2 °C 30.14 in /  1020.5 hPa Calm   1.0 mph /  1.6 km/h 67 % 0.00 in /  0 mm 0 W/m2
21:12 42.4 °F /  5.8 °C 32.6 °F /  0.3 °C 30.14 in /  1020.5 hPa Calm   2.0 mph /  3.2 km/h 68 % 0.00 in /  0 mm 0 W/m2
21:17 42.3 °F /  5.7 °C 32.4 °F /  0.2 °C 30.14 in /  1020.5 hPa Calm   2.0 mph /  3.2 km/h 68 % 0.00 in /  0 mm 0 W/m2
21:22 42.3 °F /  5.7 °C 32.4 °F /  0.2 °C 30.14 in /  1020.5 hPa Calm   2.0 mph /  3.2 km/h 68 % 0.00 in /  0 mm 0 W/m2
21:27 42.1 °F /  5.6 °C 32.6 °F /  0.3 °C 30.14 in /  1020.5 hPa Calm   1.0 mph /  1.6 km/h 69 % 0.00 in /  0 mm 0 W/m2
21:32 41.7 °F /  5.4 °C 32.3 °F /  0.2 °C 30.14 in /  1020.5 hPa Calm   2.0 mph /  3.2 km/h 69 % 0.00 in /  0 mm 0 W/m2
21:37 41.5 °F /  5.3 °C 32.1 °F /  0.1 °C 30.14 in /  1020.5 hPa Calm   2.0 mph /  3.2 km/h 69 % 0.00 in /  0 mm 0 W/m2
21:42 41.4 °F /  5.2 °C 32.3 °F /  0.2 °C 30.14 in /  1020.5 hPa Calm     70 % 0.00 in /  0 mm 0 W/m2
21:47 41.2 °F /  5.1 °C 32.5 °F /  0.3 °C 30.14 in /  1020.5 hPa Calm   1.0 mph /  1.6 km/h 71 % 0.00 in /  0 mm 0 W/m2
21:52 40.6 °F /  4.8 °C 32.7 °F /  0.4 °C 30.14 in /  1020.5 hPa Calm   1.0 mph /  1.6 km/h 73 % 0.00 in /  0 mm 0 W/m2
21:57 40.3 °F /  4.6 °C 32.6 °F /  0.3 °C 30.14 in /  1020.5 hPa Calm     74 % 0.00 in /  0 mm 0 W/m2
22:02 39.9 °F /  4.4 °C 32.6 °F /  0.3 °C 30.15 in /  1020.9 hPa Calm     75 % 0.00 in /  0 mm 0 W/m2
22:07 39.6 °F /  4.2 °C 32.6 °F /  0.3 °C 30.15 in /  1020.9 hPa Calm   1.0 mph /  1.6 km/h 76 % 0.00 in /  0 mm 0 W/m2
22:12 39.0 °F /  3.9 °C 32.4 °F /  0.2 °C 30.15 in /  1020.9 hPa Calm   1.0 mph /  1.6 km/h 77 % 0.00 in /  0 mm 0 W/m2
22:17 38.7 °F /  3.7 °C 32.4 °F /  0.2 °C 30.15 in /  1020.9 hPa Calm   1.0 mph /  1.6 km/h 78 % 0.00 in /  0 mm 0 W/m2
22:22 38.1 °F /  3.4 °C 32.2 °F /  0.1 °C 30.15 in /  1020.9 hPa Calm     79 % 0.00 in /  0 mm 0 W/m2
22:27 37.8 °F /  3.2 °C 32.1 °F /  0.1 °C 30.15 in /  1020.9 hPa Calm   1.0 mph /  1.6 km/h 80 % 0.00 in /  0 mm 0 W/m2
22:32 37.4 °F /  3 °C 31.8 °F /  -0.1 °C 30.15 in /  1020.9 hPa Calm   1.0 mph /  1.6 km/h 80 % 0.00 in /  0 mm 0 W/m2
22:37 37.0 °F /  2.8 °C 31.8 °F /  -0.1 °C 30.15 in /  1020.9 hPa Calm     81 % 0.00 in /  0 mm 0 W/m2
22:42 36.9 °F /  2.7 °C 31.9 °F /  -0.1 °C 30.15 in /  1020.9 hPa Calm   1.0 mph /  1.6 km/h 82 % 0.00 in /  0 mm 0 W/m2
22:47 36.7 °F /  2.6 °C 31.7 °F /  -0.2 °C 30.15 in /  1020.9 hPa Calm   1.0 mph /  1.6 km/h 82 % 0.00 in /  0 mm 0 W/m2
22:52 36.5 °F /  2.5 °C 31.5 °F /  -0.3 °C 30.15 in /  1020.9 hPa Calm   1.0 mph /  1.6 km/h 82 % 0.00 in /  0 mm 0 W/m2
22:57 36.1 °F /  2.3 °C 31.5 °F /  -0.3 °C 30.15 in /  1020.9 hPa Calm   1.0 mph /  1.6 km/h 83 % 0.00 in /  0 mm 0 W/m2
23:02 36.0 °F /  2.2 °C 31.3 °F /  -0.4 °C 30.15 in /  1020.9 hPa Calm   1.0 mph /  1.6 km/h 83 % 0.00 in /  0 mm 0 W/m2
23:07 35.8 °F /  2.1 °C 31.1 °F /  -0.5 °C 30.15 in /  1020.9 hPa Calm   1.0 mph /  1.6 km/h 83 % 0.00 in /  0 mm 0 W/m2
23:12 35.6 °F /  2 °C 30.9 °F /  -0.6 °C 30.15 in /  1020.9 hPa Calm   1.0 mph /  1.6 km/h 83 % 0.00 in /  0 mm 0 W/m2
23:17 35.4 °F /  1.9 °C 31.1 °F /  -0.5 °C 30.15 in /  1020.9 hPa Calm   1.0 mph /  1.6 km/h 84 % 0.00 in /  0 mm 0 W/m2
23:22 35.2 °F /  1.8 °C 30.9 °F /  -0.6 °C 30.15 in /  1020.9 hPa Calm     84 % 0.00 in /  0 mm 0 W/m2
23:27 35.2 °F /  1.8 °C 30.9 °F /  -0.6 °C 30.15 in /  1020.9 hPa Calm     84 % 0.00 in /  0 mm 0 W/m2
23:32 35.1 °F /  1.7 °C 31.0 °F /  -0.6 °C 30.15 in /  1020.9 hPa Calm     85 % 0.00 in /  0 mm 0 W/m2
23:37 34.9 °F /  1.6 °C 30.8 °F /  -0.7 °C 30.15 in /  1020.9 hPa Calm     85 % 0.00 in /  0 mm 0 W/m2
23:42 34.7 °F /  1.5 °C 30.7 °F /  -0.7 °C 30.15 in /  1020.9 hPa Calm     85 % 0.00 in /  0 mm 0 W/m2
23:47 34.5 °F /  1.4 °C 30.5 °F /  -0.8 °C 30.14 in /  1020.5 hPa Calm     85 % 0.00 in /  0 mm 0 W/m2
23:52 34.3 °F /  1.3 °C 30.3 °F /  -0.9 °C 30.14 in /  1020.5 hPa Calm     85 % 0.00 in /  0 mm 0 W/m2
23:57 34.2 °F /  1.2 °C 30.1 °F /  -1.1 °C 30.14 in /  1020.5 hPa Calm     85 % 0.00 in /  0 mm 0 W/m2
Delerius-Weather
Compliments of Weather Underground - 2.25 mb

Data updates at regular intervals.